Time;durP1;ratioP1;P1;durP2;ratioP2;P2;SDS_P1;SDS_P2;PMS_P1;PMS_P2;Temp;Humidity;BMP_temperature;BMP_pressure;BME280_temperature;BME280_humidity;BME280_pressure;Samples;Min_cycle;Max_cycle;Signal;HPM_P1;HPM_P2
2023/01/29 00:05:33;;;;;;;27.43;19.23;;;;;;;-0.63;54.38;101925.00;20916491;28;20204;-84
2023/01/29 00:15:36;;;;;;;25.23;17.37;;;;;;;-1.53;56.69;101917.00;20881365;28;20253;-84
2023/01/29 00:25:38;;;;;;;26.60;19.10;;;;;;;-1.09;55.30;101894.53;20864617;28;20196;-85
2023/01/29 00:35:40;;;;;;;28.40;19.50;;;;;;;-1.05;55.52;101903.22;20885359;28;20207;-85
2023/01/29 00:45:43;;;;;;;27.93;19.53;;;;;;;-0.14;53.14;101890.66;20867668;28;20674;-87
2023/01/29 00:55:45;;;;;;;29.47;19.70;;;;;;;-0.71;54.09;101886.59;20865742;28;20200;-85
2023/01/29 01:05:48;;;;;;;29.70;19.87;;;;;;;-0.36;53.69;101894.69;20889282;28;20226;-86
2023/01/29 01:15:50;;;;;;;30.30;20.37;;;;;;;-0.55;54.15;101915.72;20882435;28;20231;-84
2023/01/29 01:25:53;;;;;;;34.07;21.10;;;;;;;-0.55;53.38;101899.16;20885926;28;20654;-83
2023/01/29 01:36:00;;;;;;;26.43;19.23;;;;;;;-1.19;55.63;101863.72;20907182;28;20257;-83
2023/01/29 01:46:03;;;;;;;32.37;20.40;;;;;;;-0.85;54.98;101853.66;20891602;28;20230;-84
2023/01/29 01:56:12;;;;;;;31.30;20.83;;;;;;;-0.64;54.48;101853.47;20892673;28;20212;-84
2023/01/29 02:16:36;;;;;;;33.07;22.27;;;;;;;-0.39;53.80;101871.09;20858018;28;20265;-85
2023/01/29 02:26:54;;;;;;;31.17;21.30;;;;;;;-1.22;56.23;101882.63;20862925;28;20436;-85
2023/01/29 02:37:05;;;;;;;33.07;22.03;;;;;;;-1.41;56.74;101875.94;20874001;28;20216;-85
2023/01/29 02:47:41;;;;;;;30.27;20.47;;;;;;;-0.78;55.27;101893.97;20851848;28;20509;-85
2023/01/29 02:57:45;;;;;;;31.87;21.63;;;;;;;-0.67;54.74;101881.47;20879021;28;20620;-84
2023/01/29 03:07:52;;;;;;;29.27;19.07;;;;;;;-0.61;55.69;101894.44;20867171;28;20486;-84
2023/01/29 03:18:14;;;;;;;34.63;23.63;;;;;;;-0.44;54.43;101878.34;20899526;28;20219;-87
2023/01/29 03:38:38;;;;;;;30.07;21.93;;;;;;;-1.05;56.59;101882.03;20903878;28;20512;-85
2023/01/29 03:48:54;;;;;;;34.53;22.60;;;;;;;-1.27;57.19;101872.19;20835354;28;20196;-85
2023/01/29 03:59:13;;;;;;;37.03;23.73;;;;;;;-0.93;55.73;101864.84;20892021;28;20223;-85
2023/01/29 04:10:00;;;;;;;38.73;25.73;;;;;;;-0.20;53.11;101846.47;20933167;28;20219;-86
2023/01/29 04:20:08;;;;;;;38.67;24.80;;;;;;;-0.37;53.77;101852.41;20884547;28;20219;-86
2023/01/29 04:30:29;;;;;;;37.20;24.90;;;;;;;-0.49;54.21;101818.22;20903540;28;20604;-85
2023/01/29 04:40:54;;;;;;;38.97;24.77;;;;;;;-0.14;54.52;101829.03;20913616;28;20242;-84
2023/01/29 04:50:56;;;;;;;40.10;26.27;;;;;;;-0.44;54.75;101812.94;20879929;28;20192;-83
2023/01/29 05:00:59;;;;;;;40.87;26.30;;;;;;;-0.28;55.46;101809.72;20833542;28;20243;-85
2023/01/29 05:11:02;;;;;;;38.20;25.50;;;;;;;-0.03;54.20;101781.47;20879189;28;20215;-84
2023/01/29 05:21:06;;;;;;;36.17;24.73;;;;;;;-0.25;55.33;101761.50;20896014;28;20264;-84
2023/01/29 05:31:08;;;;;;;41.67;25.07;;;;;;;-0.32;54.41;101761.53;20888982;28;20196;-85
2023/01/29 05:41:11;;;;;;;39.03;24.07;;;;;;;-0.10;54.86;101756.59;20904714;28;20297;-85
2023/01/29 05:51:13;;;;;;;38.17;24.40;;;;;;;-0.41;54.77;101773.81;20906369;28;20230;-84
2023/01/29 06:01:22;;;;;;;39.07;23.87;;;;;;;-0.52;55.36;101788.28;20869762;28;20223;-84
2023/01/29 06:11:24;;;;;;;35.17;22.53;;;;;;;0.06;53.95;101808.63;20850357;28;20217;-85
2023/01/29 06:21:27;;;;;;;36.33;22.90;;;;;;;0.00;53.89;101826.06;20883269;28;20613;-84
2023/01/29 06:31:30;;;;;;;36.30;22.67;;;;;;;0.16;52.93;101815.63;20868285;28;20246;-85
2023/01/29 06:41:41;;;;;;;33.27;21.37;;;;;;;-0.19;54.56;101798.47;20873836;28;20281;-85
2023/01/29 06:51:43;;;;;;;33.13;20.33;;;;;;;-0.09;54.00;101812.72;20880282;28;20192;-86
2023/01/29 07:01:45;;;;;;;32.07;20.70;;;;;;;0.35;53.46;101811.97;20841580;28;20258;-85
2023/01/29 07:11:48;;;;;;;29.70;19.13;;;;;;;0.62;53.28;101815.47;20870435;28;20261;-86
2023/01/29 07:21:50;;;;;;;35.03;20.90;;;;;;;0.37;53.67;101821.72;20879530;28;20223;-85
2023/01/29 07:31:52;;;;;;;30.30;18.80;;;;;;;-0.88;58.42;101807.16;20878065;28;20628;-86
2023/01/29 07:41:55;;;;;;;31.70;20.17;;;;;;;0.52;54.44;101802.09;20847360;28;20232;-84
2023/01/29 07:51:57;;;;;;;32.43;19.77;;;;;;;-0.64;58.20;101790.84;20856487;28;20208;-85
2023/01/29 08:01:59;;;;;;;32.60;18.73;;;;;;;-0.08;56.15;101776.59;20864905;28;20238;-85
2023/01/29 08:12:02;;;;;;;33.07;20.00;;;;;;;-0.68;58.35;101777.69;20892715;28;20245;-84
2023/01/29 08:22:05;;;;;;;30.73;19.13;;;;;;;0.01;56.51;101777.19;20879644;28;20225;-85
2023/01/29 08:32:10;;;;;;;32.90;19.63;;;;;;;0.24;55.37;101783.06;20864340;28;20201;-85
2023/01/29 08:42:13;;;;;;;30.33;19.43;;;;;;;0.16;56.29;101769.50;20878436;28;20580;-84
2023/01/29 08:52:15;;;;;;;30.77;19.93;;;;;;;0.13;56.69;101755.25;20898722;28;20196;-86
2023/01/29 09:02:17;;;;;;;29.93;19.23;;;;;;;-0.43;58.53;101751.13;20881094;28;20568;-85
2023/01/29 09:12:20;;;;;;;31.87;19.83;;;;;;;0.29;56.09;101740.94;20883678;28;20317;-83
2023/01/29 09:22:22;;;;;;;32.23;20.50;;;;;;;0.44;56.03;101722.16;20897207;28;20281;-82
2023/01/29 09:32:24;;;;;;;34.03;20.30;;;;;;;0.68;55.31;101717.78;20926124;28;20195;-86
2023/01/29 09:42:55;;;;;;;30.57;18.90;;;;;;;1.05;54.87;101708.56;20908458;28;20227;-81
2023/01/29 09:53:01;;;;;;;33.93;21.13;;;;;;;0.58;56.06;101714.66;20895091;28;20258;-82
2023/01/29 10:03:09;;;;;;;30.40;19.47;;;;;;;-0.23;57.82;101708.81;20897680;28;20490;-82
2023/01/29 10:13:51;;;;;;;33.87;22.27;;;;;;;0.62;56.56;101715.91;20905504;28;20220;-83
2023/01/29 10:24:05;;;;;;;32.73;20.33;;;;;;;1.05;54.51;101708.56;20872448;28;20220;-85
2023/01/29 10:34:27;;;;;;;32.37;20.83;;;;;;;0.99;54.94;101697.56;20891375;28;20721;-83
2023/01/29 10:44:55;;;;;;;31.43;20.67;;;;;;;1.57;53.19;101689.75;20893548;28;20271;-87
2023/01/29 10:55:16;;;;;;;31.10;19.77;;;;;;;0.92;55.12;101664.38;20906040;28;20261;-84
2023/01/29 11:05:39;;;;;;;32.60;21.60;;;;;;;0.75;55.50;101649.44;20895784;28;20302;-87
2023/01/29 11:15:42;;;;;;;38.27;24.13;;;;;;;1.48;54.02;101653.22;20865515;28;20280;-87
2023/01/29 11:25:51;;;;;;;46.33;28.27;;;;;;;0.73;55.46;101640.50;20884494;28;20243;-85
2023/01/29 11:35:56;;;;;;;35.63;22.60;;;;;;;0.64;56.29;101611.41;20876423;28;20203;-87
2023/01/29 11:46:01;;;;;;;30.47;19.90;;;;;;;1.84;53.04;101601.66;20867958;28;20216;-85
2023/01/29 11:56:15;;;;;;;33.77;20.60;;;;;;;0.99;54.99;101576.66;20867651;28;20596;-86
2023/01/29 12:06:23;;;;;;;31.57;19.17;;;;;;;1.92;53.21;101556.16;20846151;28;20215;-86
2023/01/29 12:16:31;;;;;;;34.47;19.90;;;;;;;0.40;56.89;101544.84;20860439;28;20497;-83
2023/01/29 12:26:35;;;;;;;28.97;19.57;;;;;;;1.25;54.74;101497.16;20873174;28;20624;-83
2023/01/29 12:37:18;;;;;;;28.77;17.80;;;;;;;1.10;54.34;101473.50;20871174;28;20266;-83
2023/01/29 12:47:29;;;;;;;28.43;18.03;;;;;;;1.05;55.37;101459.50;20822216;28;20227;-82
2023/01/29 12:57:50;;;;;;;28.80;18.20;;;;;;;0.65;55.67;101441.66;20885663;28;20261;-84
2023/01/29 13:08:06;;;;;;;31.03;18.93;;;;;;;1.42;53.42;101443.69;20909617;28;20657;-83
2023/01/29 13:18:30;;;;;;;33.87;20.67;;;;;;;2.37;51.54;101435.38;20885204;28;20232;-82
2023/01/29 13:28:32;;;;;;;25.93;17.43;;;;;;;2.44;51.47;101430.56;20894170;28;20188;-81
2023/01/29 13:38:35;;;;;;;23.63;16.10;;;;;;;1.91;51.55;101424.22;20866352;28;20248;-82
2023/01/29 13:48:42;;;;;;;20.60;14.60;;;;;;;2.23;51.81;101423.66;20855152;28;20218;-83
2023/01/29 13:58:44;;;;;;;44.33;28.30;;;;;;;2.29;51.29;101430.19;20870384;28;20270;-81
2023/01/29 14:08:46;;;;;;;30.87;17.57;;;;;;;2.24;51.64;101418.94;20886211;28;20247;-83
2023/01/29 14:19:00;;;;;;;23.13;15.57;;;;;;;2.09;51.29;101396.41;20877455;28;20212;-81
2023/01/29 14:29:11;;;;;;;22.67;14.07;;;;;;;1.84;52.34;101403.00;20868573;28;20836;-83
2023/01/29 14:39:43;;;;;;;26.50;16.40;;;;;;;1.77;52.62;101402.28;20849479;28;20227;-82
2023/01/29 14:49:49;;;;;;;23.23;14.57;;;;;;;2.09;51.29;101385.31;20859190;28;20200;-82
2023/01/29 14:59:57;;;;;;;21.60;14.07;;;;;;;2.25;51.49;101381.81;20857707;28;20504;-88
2023/01/29 15:10:14;;;;;;;18.67;12.17;;;;;;;1.89;52.27;101377.34;20871581;28;20219;-86
2023/01/29 15:20:29;;;;;;;20.30;13.70;;;;;;;1.65;52.94;101364.53;20864458;28;20220;-86
2023/01/29 15:30:34;;;;;;;14.50;10.93;;;;;;;2.14;52.29;101368.81;20866903;28;20196;-87
2023/01/29 15:40:36;;;;;;;18.30;10.97;;;;;;;1.73;52.67;101353.94;20870208;28;20208;-86
2023/01/29 15:50:40;;;;;;;16.30;11.33;;;;;;;1.80;53.01;101346.38;20857920;28;20239;-87
2023/01/29 16:00:53;;;;;;;15.17;10.50;;;;;;;2.33;52.93;101344.59;20854174;28;20354;-87
2023/01/29 16:10:57;;;;;;;18.90;10.87;;;;;;;2.51;51.91;101336.97;20869881;28;20215;-86
2023/01/29 16:21:04;;;;;;;18.70;12.47;;;;;;;1.97;53.49;101320.72;20876068;28;20296;-86
2023/01/29 16:31:06;;;;;;;24.30;15.13;;;;;;;2.05;54.07;101312.88;20857115;28;20197;-85
2023/01/29 16:41:34;;;;;;;17.57;12.23;;;;;;;2.27;54.06;101285.41;20862631;28;20259;-84
2023/01/29 16:51:38;;;;;;;32.07;20.47;;;;;;;2.09;54.75;101291.06;20886532;28;20257;-85
2023/01/29 17:01:40;;;;;;;17.40;12.30;;;;;;;1.78;55.25;101276.53;20887175;28;20211;-85
2023/01/29 17:11:43;;;;;;;18.00;12.60;;;;;;;1.35;56.51;101264.91;20877942;28;20239;-85
2023/01/29 17:21:45;;;;;;;20.97;13.67;;;;;;;1.86;55.69;101250.38;20858214;28;20251;-84
2023/01/29 17:31:48;;;;;;;25.00;14.77;;;;;;;1.99;54.94;101252.88;20876862;28;20255;-86
2023/01/29 17:41:52;;;;;;;21.03;13.23;;;;;;;1.85;55.86;101245.91;20880835;28;20553;-86
2023/01/29 17:51:55;;;;;;;20.83;13.47;;;;;;;2.09;55.34;101235.63;20884737;28;20220;-85
2023/01/29 18:01:58;;;;;;;20.33;13.10;;;;;;;1.68;56.36;101233.84;20885246;28;20278;-85
2023/01/29 18:12:00;;;;;;;22.87;14.57;;;;;;;2.42;55.13;101218.34;20878068;28;20224;-85
2023/01/29 18:22:03;;;;;;;20.23;13.27;;;;;;;1.91;56.70;101213.63;20881781;28;20224;-83
2023/01/29 18:32:05;;;;;;;18.87;13.40;;;;;;;2.31;57.83;101166.53;20878014;28;20204;-84
2023/01/29 18:42:08;;;;;;;22.80;14.80;;;;;;;2.24;58.30;101163.88;20844400;28;20273;-84
2023/01/29 18:52:10;;;;;;;21.67;15.40;;;;;;;2.14;58.74;101147.91;20889259;28;20201;-84
2023/01/29 19:02:14;;;;;;;20.93;14.33;;;;;;;2.27;58.32;101152.31;20858436;28;20257;-85
2023/01/29 19:12:17;;;;;;;20.97;13.50;;;;;;;1.95;61.33;101142.75;20880919;28;20262;-86
2023/01/29 19:22:19;;;;;;;17.33;12.70;;;;;;;1.65;62.75;101129.97;20879159;28;20277;-85
2023/01/29 19:32:21;;;;;;;17.60;13.13;;;;;;;1.47;65.06;101127.31;20859560;28;20195;-87
2023/01/29 19:42:26;;;;;;;23.83;13.67;;;;;;;1.94;64.23;101091.19;20866170;28;20243;-86
2023/01/29 19:52:35;;;;;;;21.57;13.67;;;;;;;2.30;61.93;101070.56;20835793;28;20690;-84
2023/01/29 20:02:52;;;;;;;17.43;11.93;;;;;;;1.72;62.80;101047.56;20869662;28;20805;-88
2023/01/29 20:12:54;;;;;;;18.73;12.50;;;;;;;2.75;59.13;101031.72;20860759;28;20251;-88
2023/01/29 20:22:56;;;;;;;18.90;11.50;;;;;;;2.27;61.32;101001.75;20868336;28;20224;-87
2023/01/29 20:32:59;;;;;;;16.73;12.43;;;;;;;2.06;61.15;100979.22;20868965;28;20254;-88
2023/01/29 20:43:01;;;;;;;17.33;11.20;;;;;;;1.68;62.64;100970.72;20859872;28;20595;-86
2023/01/29 20:53:03;;;;;;;20.27;13.07;;;;;;;1.97;61.72;100963.25;20870700;28;20199;-90
2023/01/29 21:03:07;;;;;;;20.20;13.67;;;;;;;2.12;60.87;100944.13;20884552;28;20219;-87
2023/01/29 21:13:11;;;;;;;18.40;12.33;;;;;;;2.21;62.08;100982.25;20868044;28;20212;-88
2023/01/29 21:23:13;;;;;;;17.37;12.50;;;;;;;2.59;61.13;100956.56;20875926;28;20250;-87
2023/01/29 21:33:16;;;;;;;20.73;14.30;;;;;;;1.76;64.77;100935.19;20869637;28;20226;-84
2023/01/29 21:43:19;;;;;;;20.77;14.10;;;;;;;2.25;63.82;100949.34;20866420;28;20274;-87
2023/01/29 21:53:22;;;;;;;20.00;12.80;;;;;;;1.95;64.63;100957.94;20868235;28;20196;-86
2023/01/29 22:03:24;;;;;;;21.83;14.13;;;;;;;1.92;64.85;100957.63;20848411;28;20281;-87
2023/01/29 22:13:26;;;;;;;22.63;14.77;;;;;;;2.91;62.95;100933.72;20852458;28;20263;-87
2023/01/29 22:23:30;;;;;;;22.67;14.53;;;;;;;2.49;65.11;100945.31;20874093;28;20225;-87
2023/01/29 22:33:33;;;;;;;21.47;14.13;;;;;;;2.15;65.91;100944.47;20875230;28;20219;-86
2023/01/29 22:43:35;;;;;;;20.70;13.13;;;;;;;1.81;67.21;100926.09;20867812;28;20262;-88
2023/01/29 22:53:39;;;;;;;24.53;15.10;;;;;;;2.51;65.70;100909.84;20859472;28;20189;-88
2023/01/29 23:03:42;;;;;;;24.53;15.33;;;;;;;1.91;68.26;100853.44;20833045;28;20624;-87
2023/01/29 23:13:50;;;;;;;24.07;14.83;;;;;;;2.10;68.79;100810.50;20847767;28;20224;-88
2023/01/29 23:23:57;;;;;;;23.87;14.90;;;;;;;2.05;68.21;100717.03;20869404;28;20215;-87
2023/01/29 23:34:00;;;;;;;26.13;15.97;;;;;;;2.28;68.07;100767.78;20859916;28;20224;-88
2023/01/29 23:44:04;;;;;;;22.70;12.97;;;;;;;1.98;69.27;100759.88;20858588;28;20278;-86
2023/01/29 23:54:06;;;;;;;25.40;15.83;;;;;;;2.77;67.25;100740.97;20856027;28;20200;-87
